臺北終端管制區 - 桃園北區雷達席

METAR RCTP 211130Z 21009KT 9999 FEW012 BKN050 24/21 Q1015 NOSIG RMK A2998=

站台狀態:Offline
最後更新:2024-02-21 19:30:01